createdAt,value
2023-05-22T00:01:06.802Z,81.90
2023-05-22T00:03:36.491Z,82.10
2023-05-22T00:06:10.157Z,82.30
2023-05-22T00:08:38.205Z,82.50
2023-05-22T00:11:06.420Z,82.70
2023-05-22T00:13:34.506Z,82.90
2023-05-22T00:16:04.326Z,83.10
2023-05-22T00:18:32.799Z,83.20
2023-05-22T00:21:00.882Z,83.40
2023-05-22T00:23:30.055Z,83.60
2023-05-22T00:25:58.287Z,83.70
2023-05-22T00:28:26.475Z,84.00
2023-05-22T00:30:54.710Z,84.10
2023-05-22T00:33:24.164Z,84.40
2023-05-22T00:35:52.203Z,84.80
2023-05-22T00:38:32.297Z,85.10
2023-05-22T00:41:00.749Z,85.30
2023-05-22T00:43:29.198Z,85.50
2023-05-22T00:45:57.446Z,85.60
2023-05-22T00:48:27.068Z,85.90
2023-05-22T00:50:58.053Z,86.30
2023-05-22T00:53:28.164Z,86.50
2023-05-22T00:55:56.679Z,86.60
2023-05-22T00:58:27.926Z,86.70
2023-05-22T01:00:56.390Z,87.00
2023-05-22T01:03:25.953Z,87.00
2023-05-22T01:05:56.748Z,87.30
2023-05-22T01:08:25.135Z,87.70
2023-05-22T01:10:58.101Z,87.90
2023-05-22T01:13:31.328Z,88.20
2023-05-22T01:16:07.373Z,88.50
2023-05-22T01:18:42.265Z,88.80
2023-05-22T01:21:18.387Z,88.90
2023-05-22T01:24:14.028Z,89.20
2023-05-22T01:27:17.702Z,89.50
2023-05-22T01:29:52.086Z,89.80
2023-05-22T01:32:24.352Z,89.90
2023-05-22T01:34:56.247Z,90.00
2023-05-22T01:37:25.577Z,90.00
2023-05-22T01:39:54.669Z,90.10
2023-05-22T01:42:23.051Z,90.10
2023-05-22T01:44:51.273Z,90.20
2023-05-22T01:47:21.094Z,90.30
2023-05-22T01:49:49.210Z,90.40
2023-05-22T01:52:26.710Z,90.90
2023-05-22T01:55:03.676Z,90.70
2023-05-22T01:57:37.550Z,90.80
2023-05-22T02:00:10.899Z,90.90
2023-05-22T02:02:43.248Z,90.90
2023-05-22T02:05:13.560Z,91.00
2023-05-22T02:07:43.709Z,91.10
2023-05-22T02:10:14.436Z,91.20
2023-05-22T02:12:42.872Z,91.30
2023-05-22T02:15:11.493Z,91.50
2023-05-22T02:17:41.501Z,91.70
2023-05-22T02:20:14.612Z,91.90
2023-05-22T02:22:44.143Z,92.00
2023-05-22T02:25:15.040Z,92.10
2023-05-22T02:27:43.925Z,92.10
2023-05-22T02:30:12.884Z,92.20
2023-05-22T02:32:42.668Z,92.30
2023-05-22T02:35:11.613Z,92.40
2023-05-22T02:37:40.205Z,92.40
2023-05-22T02:40:10.095Z,92.50
2023-05-22T02:42:38.206Z,92.90
2023-05-22T02:45:07.403Z,92.60
2023-05-22T02:47:35.753Z,92.70
2023-05-22T02:50:05.587Z,92.80
2023-05-22T02:52:33.909Z,93.00
2023-05-22T02:55:02.144Z,93.00
2023-05-22T02:57:30.130Z,93.10
2023-05-22T02:59:59.260Z,93.10
2023-05-22T03:02:28.404Z,93.30
2023-05-22T03:04:59.073Z,93.40
2023-05-22T03:07:29.708Z,93.70
2023-05-22T03:09:57.922Z,93.80
2023-05-22T03:12:26.795Z,93.90
2023-05-22T03:14:54.844Z,94.10
2023-05-22T03:17:22.886Z,94.20
2023-05-22T03:19:51.179Z,94.40
2023-05-22T03:22:19.608Z,94.50
2023-05-22T03:24:49.053Z,94.70
2023-05-22T03:27:17.764Z,94.70
2023-05-22T03:29:46.029Z,94.80
2023-05-22T03:32:14.109Z,94.80
2023-05-22T03:34:43.437Z,94.90
2023-05-22T03:37:11.731Z,94.90
2023-05-22T03:39:40.679Z,95.00
2023-05-22T03:42:10.120Z,95.20
2023-05-22T03:44:38.391Z,95.30
2023-05-22T03:47:08.093Z,95.50
2023-05-22T03:49:36.243Z,96.00
2023-05-22T03:52:04.642Z,95.80
2023-05-22T03:54:32.747Z,95.90
2023-05-22T03:57:00.787Z,95.90
2023-05-22T03:59:30.275Z,96.10
2023-05-22T04:02:01.255Z,96.30
2023-05-22T04:04:29.654Z,96.40
2023-05-22T04:06:58.430Z,96.50
2023-05-22T04:09:28.497Z,96.70
2023-05-22T04:11:56.668Z,96.90
2023-05-22T04:14:24.665Z,96.90
2023-05-22T04:16:54.074Z,97.20
2023-05-22T04:19:22.761Z,97.40
2023-05-22T04:21:51.172Z,97.50
2023-05-22T04:24:19.811Z,97.70
2023-05-22T04:26:48.018Z,97.90
2023-05-22T04:29:16.600Z,98.00
2023-05-22T04:31:45.101Z,98.00
2023-05-22T04:34:18.605Z,98.00
2023-05-22T04:36:48.139Z,98.00
2023-05-22T04:39:16.553Z,97.90
2023-05-22T04:41:44.588Z,98.00
2023-05-22T04:44:12.639Z,98.00
2023-05-22T04:46:40.829Z,98.10
2023-05-22T04:49:08.899Z,98.10
2023-05-22T04:51:38.304Z,98.00
2023-05-22T04:54:06.392Z,98.00
2023-05-22T04:56:36.733Z,98.10
2023-05-22T04:59:09.353Z,98.10
2023-05-22T05:01:38.251Z,98.10
2023-05-22T05:04:06.669Z,98.20
2023-05-22T05:06:35.912Z,98.30
2023-05-22T05:09:05.467Z,98.30
2023-05-22T05:11:33.561Z,98.30
2023-05-22T05:14:01.644Z,98.30
2023-05-22T05:16:29.833Z,98.30
2023-05-22T05:18:57.975Z,98.30
2023-05-22T05:21:28.011Z,98.10
2023-05-22T05:23:56.183Z,97.80
2023-05-22T05:26:27.341Z,97.70
2023-05-22T05:28:56.709Z,97.60
2023-05-22T05:31:24.968Z,97.50
2023-05-22T05:33:53.452Z,97.50
2023-05-22T05:36:21.814Z,97.30
2023-05-22T05:38:49.862Z,97.10
2023-05-22T05:41:19.214Z,97.00
2023-05-22T05:43:48.615Z,96.90
2023-05-22T05:46:16.717Z,96.80
2023-05-22T05:48:45.078Z,96.80
2023-05-22T05:51:13.316Z,96.50
2023-05-22T05:53:41.777Z,96.40
2023-05-22T05:56:10.628Z,96.40
2023-05-22T05:58:39.032Z,96.30
2023-05-22T06:01:08.940Z,96.20
2023-05-22T06:03:37.365Z,96.20
2023-05-22T06:06:06.157Z,96.00
2023-05-22T06:08:34.610Z,95.90
2023-05-22T06:11:03.625Z,96.20
2023-05-22T06:13:31.813Z,95.80
2023-05-22T06:16:02.336Z,95.60
2023-05-22T06:18:34.297Z,95.50
2023-05-22T06:21:02.332Z,95.40
2023-05-22T06:23:30.947Z,95.30
2023-05-22T06:25:59.015Z,95.10
2023-05-22T06:28:27.011Z,94.90
2023-05-22T06:30:54.973Z,94.90
2023-05-22T06:33:23.131Z,95.00
2023-05-22T06:35:52.693Z,94.80
2023-05-22T06:38:20.737Z,94.60
2023-05-22T06:40:49.167Z,94.30
2023-05-22T06:43:17.226Z,94.00
2023-05-22T06:45:45.561Z,93.60
2023-05-22T06:48:13.662Z,93.50
2023-05-22T06:50:41.687Z,93.40
2023-05-22T06:53:11.344Z,93.20
2023-05-22T06:55:39.537Z,93.00
2023-05-22T06:58:07.873Z,92.80
2023-05-22T07:00:35.931Z,92.60
2023-05-22T07:03:06.310Z,92.40
2023-05-22T07:05:34.428Z,92.10
2023-05-22T07:08:03.276Z,92.10
2023-05-22T07:10:32.689Z,91.80
2023-05-22T07:13:00.787Z,91.60
2023-05-22T07:15:28.774Z,91.50
2023-05-22T07:17:57.020Z,91.30
2023-05-22T07:20:26.755Z,91.00
2023-05-22T07:22:54.776Z,90.80
2023-05-22T07:25:22.740Z,90.50
2023-05-22T07:27:52.069Z,90.40
2023-05-22T07:30:20.062Z,90.90
2023-05-22T07:32:49.257Z,90.70
2023-05-22T07:35:17.595Z,90.70
2023-05-22T07:37:45.731Z,90.30
2023-05-22T07:40:14.121Z,90.00
2023-05-22T07:42:42.097Z,89.40
2023-05-22T07:45:12.406Z,89.10
2023-05-22T07:47:40.876Z,89.10
2023-05-22T07:50:10.157Z,88.80
2023-05-22T07:52:38.228Z,88.10
2023-05-22T07:55:07.851Z,88.00
2023-05-22T07:57:37.081Z,88.30
2023-05-22T08:00:13.934Z,88.40
2023-05-22T08:02:44.068Z,88.30
2023-05-22T08:05:12.401Z,87.70
2023-05-22T08:07:40.682Z,87.30
2023-05-22T08:10:15.183Z,85.70
2023-05-22T08:12:43.467Z,84.50
2023-05-22T08:15:12.661Z,85.00
2023-05-22T08:17:40.777Z,83.30
2023-05-22T08:20:12.003Z,82.20
2023-05-22T08:22:41.459Z,81.30
2023-05-22T08:25:10.380Z,81.60
2023-05-22T08:27:38.376Z,80.20
2023-05-22T08:30:07.876Z,80.00
2023-05-22T08:32:36.084Z,80.00
2023-05-22T08:35:04.145Z,79.80
2023-05-22T08:37:33.536Z,79.60
2023-05-22T08:40:01.602Z,80.50
2023-05-22T08:42:29.695Z,79.60
2023-05-22T08:45:00.994Z,79.80
2023-05-22T08:47:29.468Z,79.90
2023-05-22T08:49:59.131Z,79.80
2023-05-22T08:52:34.391Z,79.80
2023-05-22T08:55:05.375Z,79.20
2023-05-22T08:57:34.009Z,78.60
2023-05-22T09:00:02.313Z,78.00
2023-05-22T09:02:30.347Z,77.70
2023-05-22T09:04:58.385Z,76.70
2023-05-22T09:07:27.914Z,75.30
2023-05-22T09:09:57.417Z,74.60
2023-05-22T09:12:27.265Z,74.40
2023-05-22T09:14:56.025Z,74.00
2023-05-22T09:17:24.088Z,73.40
2023-05-22T09:19:52.240Z,72.80
2023-05-22T09:22:20.958Z,71.70
2023-05-22T09:24:50.531Z,70.50
2023-05-22T09:27:24.100Z,70.10
2023-05-22T09:29:54.017Z,70.00
2023-05-22T09:32:22.224Z,69.90
2023-05-22T09:34:50.329Z,70.00
2023-05-22T09:37:19.188Z,69.90
2023-05-22T09:39:51.481Z,69.70
2023-05-22T09:42:20.820Z,69.50
2023-05-22T09:44:50.362Z,69.30
2023-05-22T09:47:18.468Z,69.10
2023-05-22T09:49:47.552Z,68.80
2023-05-22T09:52:18.068Z,68.50
2023-05-22T09:54:55.256Z,68.30
2023-05-22T09:57:26.632Z,68.70
2023-05-22T09:59:58.543Z,68.50
2023-05-22T10:02:29.052Z,68.00
2023-05-22T10:04:57.895Z,68.50
2023-05-22T10:07:31.261Z,67.40
2023-05-22T10:10:05.710Z,67.10
2023-05-22T10:12:37.673Z,66.40
2023-05-22T10:15:07.597Z,66.20
2023-05-22T10:17:36.041Z,66.10
2023-05-22T10:20:07.898Z,65.90
2023-05-22T10:22:38.052Z,65.50
2023-05-22T10:25:09.814Z,65.10
2023-05-22T10:27:40.817Z,64.70
2023-05-22T10:30:19.762Z,64.40
2023-05-22T10:32:55.064Z,63.80
2023-05-22T10:35:29.408Z,62.80
2023-05-22T10:38:11.845Z,62.20
2023-05-22T10:40:40.377Z,62.30
2023-05-22T10:43:09.920Z,62.60
2023-05-22T10:45:38.092Z,62.50
2023-05-22T10:48:06.907Z,62.30
2023-05-22T10:50:35.318Z,61.90
2023-05-22T10:53:24.276Z,61.60
2023-05-22T10:55:53.766Z,61.20
2023-05-22T10:58:30.121Z,61.50
2023-05-22T11:01:10.975Z,61.00
2023-05-22T11:03:53.288Z,60.80
2023-05-22T11:06:35.928Z,60.00
2023-05-22T11:09:30.786Z,58.90
2023-05-22T11:12:22.507Z,57.90
2023-05-22T11:14:56.640Z,57.30
2023-05-22T11:17:27.668Z,56.90
2023-05-22T11:20:00.612Z,56.20
2023-05-22T11:22:40.136Z,54.90
2023-05-22T11:25:13.006Z,54.20
2023-05-22T11:27:42.189Z,53.70
2023-05-22T11:30:13.270Z,53.40
2023-05-22T11:32:44.503Z,52.80
2023-05-22T11:35:16.127Z,52.10
2023-05-22T11:37:44.496Z,51.00
2023-05-22T11:40:14.923Z,50.40
2023-05-22T11:42:43.293Z,49.80
2023-05-22T11:45:13.277Z,49.50
2023-05-22T11:47:41.874Z,49.10
2023-05-22T11:50:11.568Z,48.60
2023-05-22T11:52:41.704Z,48.20
2023-05-22T11:55:11.238Z,47.80
2023-05-22T11:57:39.791Z,47.10
2023-05-22T12:00:10.721Z,46.90
2023-05-22T12:02:40.391Z,46.70
2023-05-22T12:05:11.888Z,46.50
2023-05-22T12:07:40.043Z,46.70
2023-05-22T12:10:08.559Z,46.70
2023-05-22T12:12:36.620Z,46.60
2023-05-22T12:15:07.400Z,46.20
2023-05-22T12:17:37.413Z,45.30
2023-05-22T12:20:08.399Z,44.70
2023-05-22T12:22:42.431Z,44.00
2023-05-22T12:25:16.377Z,43.90
2023-05-22T12:27:45.634Z,44.10
2023-05-22T12:30:15.235Z,44.10
2023-05-22T12:32:48.370Z,44.40
2023-05-22T12:35:18.435Z,44.50
2023-05-22T12:37:50.579Z,44.30
2023-05-22T12:40:19.683Z,44.00
2023-05-22T12:42:49.905Z,43.80
2023-05-22T12:45:19.082Z,43.50
2023-05-22T12:47:47.173Z,43.30
2023-05-22T12:50:15.493Z,43.20
2023-05-22T12:52:44.890Z,43.00
2023-05-22T12:55:13.079Z,43.40
2023-05-22T12:57:41.076Z,43.40
2023-05-22T13:00:10.163Z,42.80
2023-05-22T13:02:38.244Z,42.50
2023-05-22T13:05:07.225Z,42.30
2023-05-22T13:07:35.291Z,41.90
2023-05-22T13:10:06.803Z,41.40
2023-05-22T13:12:35.094Z,40.80
2023-05-22T13:15:04.047Z,41.10
2023-05-22T13:17:32.255Z,41.70
2023-05-22T13:20:00.467Z,41.50
2023-05-22T13:22:28.449Z,41.20
2023-05-22T13:24:56.462Z,40.70
2023-05-22T13:27:26.916Z,40.10
2023-05-22T13:29:55.543Z,39.70
2023-05-22T13:32:23.633Z,39.50
2023-05-22T13:34:51.743Z,39.20
2023-05-22T13:37:20.069Z,39.00
2023-05-22T13:39:48.131Z,38.90
2023-05-22T13:42:16.208Z,38.80
2023-05-22T13:44:46.093Z,38.70
2023-05-22T13:47:14.456Z,38.50
2023-05-22T13:49:42.512Z,37.80
2023-05-22T13:52:10.547Z,37.30
2023-05-22T13:54:38.796Z,37.30
2023-05-22T13:57:07.221Z,37.50
2023-05-22T13:59:35.432Z,37.80
2023-05-22T14:02:05.091Z,38.10
2023-05-22T14:04:33.149Z,38.40
2023-05-22T14:07:01.367Z,38.80
2023-05-22T14:09:29.534Z,39.20
2023-05-22T14:11:58.104Z,39.70
2023-05-22T14:14:26.654Z,39.70
2023-05-22T14:16:55.018Z,39.40
2023-05-22T14:19:24.645Z,38.90
2023-05-22T14:21:52.846Z,38.40
2023-05-22T14:24:21.000Z,38.60
2023-05-22T14:26:49.099Z,38.40
2023-05-22T14:29:17.413Z,38.20
2023-05-22T14:31:49.705Z,38.00
2023-05-22T14:34:19.764Z,37.60
2023-05-22T14:36:49.353Z,37.30
2023-05-22T14:39:17.395Z,37.10
2023-05-22T14:41:45.409Z,37.10
2023-05-22T14:44:13.433Z,37.00
2023-05-22T14:46:41.387Z,37.30
2023-05-22T14:49:09.552Z,37.60
2023-05-22T14:51:37.573Z,37.70
2023-05-22T14:54:08.047Z,37.90
2023-05-22T14:56:36.066Z,37.80
2023-05-22T14:59:04.130Z,37.60
2023-05-22T15:01:32.211Z,37.20
2023-05-22T15:04:00.268Z,37.00
2023-05-22T15:06:28.445Z,37.00
2023-05-22T15:08:56.449Z,37.00
2023-05-22T15:11:27.405Z,37.20
2023-05-22T15:13:55.465Z,37.40
2023-05-22T15:16:23.708Z,37.70
2023-05-22T15:18:51.888Z,38.00
2023-05-22T15:21:20.332Z,38.30
2023-05-22T15:23:48.705Z,38.70
2023-05-22T15:26:16.788Z,38.60
2023-05-22T15:28:46.205Z,38.40
2023-05-22T15:31:14.876Z,38.50
2023-05-22T15:33:43.136Z,38.60
2023-05-22T15:36:11.154Z,38.90
2023-05-22T15:38:40.429Z,39.20
2023-05-22T15:41:08.588Z,39.30
2023-05-22T15:43:36.630Z,39.30
2023-05-22T15:46:06.766Z,39.30
2023-05-22T15:48:34.861Z,39.00
2023-05-22T15:51:02.803Z,38.60
2023-05-22T15:53:30.842Z,38.10
2023-05-22T15:55:58.834Z,37.90
2023-05-22T15:58:28.483Z,37.80
2023-05-22T16:00:56.594Z,37.80
2023-05-22T16:03:26.077Z,37.60
2023-05-22T16:05:54.135Z,37.60
2023-05-22T16:08:22.109Z,37.50
2023-05-22T16:10:50.104Z,37.60
2023-05-22T16:13:18.302Z,37.40
2023-05-22T16:15:46.316Z,37.20
2023-05-22T16:18:15.015Z,37.60
2023-05-22T16:20:44.672Z,38.00
2023-05-22T16:23:13.346Z,38.40
2023-05-22T16:25:41.639Z,38.60
2023-05-22T16:28:11.197Z,38.60
2023-05-22T16:30:40.191Z,38.50
2023-05-22T16:33:08.903Z,38.60
2023-05-22T16:35:36.983Z,38.60
2023-05-22T16:38:07.047Z,38.90
2023-05-22T16:40:35.410Z,39.00
2023-05-22T16:43:04.469Z,39.10
2023-05-22T16:45:32.717Z,39.30
2023-05-22T16:48:00.756Z,39.50
2023-05-22T16:50:28.802Z,39.80
2023-05-22T16:52:56.929Z,39.90
2023-05-22T16:55:26.316Z,40.20
2023-05-22T16:57:54.312Z,40.40
2023-05-22T17:00:22.632Z,40.60
2023-05-22T17:02:50.881Z,40.90
2023-05-22T17:05:20.036Z,41.20
2023-05-22T17:07:49.563Z,41.60
2023-05-22T17:10:17.823Z,41.70
2023-05-22T17:12:48.402Z,42.00
2023-05-22T17:15:16.409Z,42.30
2023-05-22T17:17:44.464Z,42.50
2023-05-22T17:20:13.310Z,42.80
2023-05-22T17:22:41.297Z,43.00
2023-05-22T17:25:10.364Z,43.20
2023-05-22T17:27:38.395Z,43.50
2023-05-22T17:30:09.039Z,43.60
2023-05-22T17:32:37.228Z,43.70
2023-05-22T17:35:07.124Z,43.90
2023-05-22T17:37:35.427Z,44.10
2023-05-22T17:40:04.821Z,44.20
2023-05-22T17:42:32.877Z,44.40
2023-05-22T17:45:00.907Z,44.60
2023-05-22T17:47:30.257Z,44.70
2023-05-22T17:49:58.312Z,44.80
2023-05-22T17:52:26.788Z,44.90
2023-05-22T17:54:55.924Z,44.90
2023-05-22T17:57:23.911Z,44.90
2023-05-22T17:59:52.146Z,45.00
2023-05-22T18:02:20.238Z,45.30
2023-05-22T18:04:49.591Z,45.40
2023-05-22T18:07:19.271Z,45.60
2023-05-22T18:09:47.337Z,45.80
2023-05-22T18:12:31.347Z,46.00
2023-05-22T18:15:00.408Z,46.40
2023-05-22T18:17:28.551Z,46.70
2023-05-22T18:19:57.898Z,47.10
2023-05-22T18:22:26.023Z,47.60
2023-05-22T18:24:53.995Z,48.00
2023-05-22T18:27:22.341Z,48.60
2023-05-22T18:29:51.772Z,49.20
2023-05-22T18:32:20.131Z,49.70
2023-05-22T18:34:48.666Z,50.10
2023-05-22T18:37:18.971Z,50.60
2023-05-22T18:39:47.298Z,50.90
2023-05-22T18:42:15.948Z,51.30
2023-05-22T18:44:43.948Z,51.60
2023-05-22T18:47:12.031Z,51.90
2023-05-22T18:49:40.327Z,52.30
2023-05-22T18:52:09.278Z,52.60
2023-05-22T18:54:38.615Z,53.50
2023-05-22T18:57:06.915Z,53.20
2023-05-22T18:59:34.959Z,53.30
2023-05-22T19:02:03.234Z,53.40
2023-05-22T19:04:31.796Z,53.60
2023-05-22T19:07:00.296Z,53.80
2023-05-22T19:09:28.287Z,54.20
2023-05-22T19:11:57.734Z,54.60
2023-05-22T19:14:25.807Z,55.00
2023-05-22T19:16:54.130Z,55.30
2023-05-22T19:19:22.488Z,55.70
2023-05-22T19:21:50.547Z,56.10
2023-05-22T19:24:18.550Z,56.30
2023-05-22T19:26:46.576Z,56.70
2023-05-22T19:29:16.036Z,57.00
2023-05-22T19:31:44.433Z,57.20
2023-05-22T19:34:12.522Z,57.40
2023-05-22T19:36:40.855Z,57.70
2023-05-22T19:39:09.137Z,58.10
2023-05-22T19:41:37.317Z,58.40
2023-05-22T19:44:05.756Z,58.80
2023-05-22T19:46:35.233Z,59.00
2023-05-22T19:49:03.288Z,59.00
2023-05-22T19:51:32.175Z,59.20
2023-05-22T19:54:01.021Z,59.50
2023-05-22T19:56:30.258Z,59.90
2023-05-22T19:58:58.496Z,60.50
2023-05-22T20:01:26.514Z,61.00
2023-05-22T20:03:56.445Z,61.60
2023-05-22T20:06:24.636Z,62.40
2023-05-22T20:08:52.621Z,62.70
2023-05-22T20:11:21.672Z,63.00
2023-05-22T20:13:49.747Z,63.10
2023-05-22T20:16:17.758Z,63.30
2023-05-22T20:18:46.552Z,63.60
2023-05-22T20:21:16.184Z,64.00
2023-05-22T20:23:44.218Z,64.40
2023-05-22T20:26:12.614Z,64.70
2023-05-22T20:28:40.581Z,65.00
2023-05-22T20:31:08.598Z,65.20
2023-05-22T20:33:36.922Z,65.40
2023-05-22T20:36:06.470Z,65.70
2023-05-22T20:38:35.942Z,65.50
2023-05-22T20:41:08.633Z,65.50
2023-05-22T20:43:37.658Z,65.50
2023-05-22T20:46:05.860Z,65.60
2023-05-22T20:48:33.885Z,65.50
2023-05-22T20:51:01.906Z,65.60
2023-05-22T20:53:30.703Z,65.70
2023-05-22T20:56:00.184Z,65.80
2023-05-22T20:58:28.217Z,66.00
2023-05-22T21:00:56.661Z,66.20
2023-05-22T21:03:25.918Z,66.30
2023-05-22T21:05:54.991Z,66.60
2023-05-22T21:08:23.140Z,66.80
2023-05-22T21:10:51.155Z,66.90
2023-05-22T21:13:20.750Z,67.10
2023-05-22T21:15:48.838Z,67.40
2023-05-22T21:18:16.933Z,67.70
2023-05-22T21:20:45.229Z,68.10
2023-05-22T21:23:13.428Z,68.40
2023-05-22T21:25:41.529Z,68.70
2023-05-22T21:28:09.529Z,69.00
2023-05-22T21:30:38.979Z,69.40
2023-05-22T21:33:07.277Z,70.00
2023-05-22T21:35:35.553Z,70.40
2023-05-22T21:38:03.678Z,70.70
2023-05-22T21:40:31.709Z,71.20
2023-05-22T21:42:59.860Z,71.60
2023-05-22T21:45:27.905Z,71.90
2023-05-22T21:47:57.376Z,72.20
2023-05-22T21:50:25.451Z,72.30
2023-05-22T21:52:53.545Z,72.60
2023-05-22T21:55:22.207Z,73.10
2023-05-22T21:57:50.263Z,73.50
2023-05-22T22:00:19.189Z,73.80
2023-05-22T22:02:47.355Z,74.20
2023-05-22T22:05:18.596Z,75.40
2023-05-22T22:07:46.695Z,74.90
2023-05-22T22:10:14.998Z,75.00
2023-05-22T22:15:12.983Z,74.80
2023-05-22T22:17:41.733Z,75.80
2023-05-22T22:20:10.946Z,75.90
2023-05-22T22:22:40.996Z,76.10
2023-05-22T22:25:09.608Z,76.20
2023-05-22T22:27:38.045Z,76.40
2023-05-22T22:30:07.248Z,76.60
2023-05-22T22:32:35.263Z,76.70
2023-05-22T22:35:04.122Z,77.00
2023-05-22T22:37:32.293Z,77.10
2023-05-22T22:40:01.713Z,77.20
2023-05-22T22:42:29.909Z,77.40
2023-05-22T22:44:57.923Z,77.60
2023-05-22T22:47:26.037Z,77.70
2023-05-22T22:49:57.229Z,77.80
2023-05-22T22:52:25.926Z,78.10
2023-05-22T22:54:54.132Z,78.30
2023-05-22T22:57:23.738Z,78.50
2023-05-22T22:59:52.186Z,78.70
2023-05-22T23:02:20.309Z,78.80
2023-05-22T23:04:48.534Z,79.10
2023-05-22T23:07:16.612Z,79.60
2023-05-22T23:09:44.626Z,79.80
2023-05-22T23:12:12.691Z,79.80
2023-05-22T23:14:42.060Z,80.00
2023-05-22T23:17:10.091Z,80.20
2023-05-22T23:19:38.065Z,80.50
2023-05-22T23:22:06.254Z,80.60
2023-05-22T23:24:34.243Z,80.80
2023-05-22T23:27:02.349Z,80.90
2023-05-22T23:29:30.566Z,81.10
2023-05-22T23:32:00.314Z,81.20
2023-05-22T23:34:28.652Z,81.30
2023-05-22T23:36:56.640Z,81.50
2023-05-22T23:39:24.728Z,81.70
2023-05-22T23:41:54.163Z,81.80
2023-05-22T23:44:22.461Z,82.90
2023-05-22T23:46:51.153Z,82.50
2023-05-22T23:49:21.529Z,82.80
2023-05-22T23:51:49.702Z,82.90
2023-05-22T23:54:18.183Z,83.10
2023-05-22T23:56:46.528Z,83.30
2023-05-22T23:59:14.580Z,83.50
